Time;durP1;ratioP1;P1;durP2;ratioP2;P2;SDS_P1;SDS_P2;PMS_P1;PMS_P2;Temp;Humidity;BMP_temperature;BMP_pressure;BME280_temperature;BME280_humidity;BME280_pressure;Samples;Min_cycle;Max_cycle;Signal;HPM_P1;HPM_P2
2022/01/16 00:00:26;;;;;;;14.88;8.18;;;5.10;95.30;;;;;;5101275;28;20210;-79
2022/01/16 00:05:40;;;;;;;16.63;10.98;;;5.10;94.60;;;;;;5108438;28;20214;-79
2022/01/16 00:08:08;;;;;;;16.60;9.35;;;5.10;95.00;;;;;;5104545;28;20206;-81
2022/01/16 00:10:38;;;;;;;12.18;6.68;;;5.00;94.80;;;;;;5108603;28;20279;-81
2022/01/16 00:13:06;;;;;;;16.95;6.93;;;5.00;95.00;;;;;;5110440;28;20215;-80
2022/01/16 00:15:35;;;;;;;15.35;9.57;;;5.00;95.10;;;;;;5104746;28;20596;-81
2022/01/16 00:18:10;;;;;;;14.00;7.72;;;5.00;95.00;;;;;;5106428;28;20732;-80
2022/01/16 00:20:39;;;;;;;13.30;8.10;;;5.00;96.40;;;;;;5108520;28;20204;-80
2022/01/16 00:23:09;;;;;;;14.10;9.25;;;4.90;97.20;;;;;;5108482;28;20197;-80
2022/01/16 00:25:41;;;;;;;20.17;9.38;;;5.00;99.70;;;;;;5107273;28;20219;-80
2022/01/16 00:28:09;;;;;;;16.25;8.93;;;5.00;98.80;;;;;;5105052;28;20207;-80
2022/01/16 00:30:37;;;;;;;15.93;9.20;;;5.00;95.40;;;;;;5106925;28;20194;-80
2022/01/16 00:33:05;;;;;;;15.65;7.50;;;5.00;99.90;;;;;;5106204;28;20211;-80
2022/01/16 00:35:34;;;;;;;18.70;8.82;;;4.90;95.20;;;;;;5103187;28;20235;-81
2022/01/16 00:38:02;;;;;;;21.65;10.38;;;5.00;95.30;;;;;;5097603;28;20196;-80
2022/01/16 00:40:30;;;;;;;21.90;10.65;;;4.90;95.40;;;;;;5106081;28;20189;-80
2022/01/16 00:43:00;;;;;;;22.05;11.15;;;4.90;98.30;;;;;;5107012;28;20208;-81
2022/01/16 00:45:33;;;;;;;18.42;9.27;;;4.90;99.90;;;;;;5100488;28;20220;-79
2022/01/16 00:48:03;;;;;;;22.00;9.50;;;4.90;97.60;;;;;;5100974;28;20200;-80
2022/01/16 00:50:32;;;;;;;18.67;10.55;;;4.90;99.90;;;;;;5103190;28;20197;-80
2022/01/16 00:53:01;;;;;;;25.00;10.70;;;4.90;99.90;;;;;;5107365;28;20205;-80
2022/01/16 00:55:29;;;;;;;22.83;10.20;;;4.90;99.90;;;;;;5108390;28;20666;-80
2022/01/16 00:57:58;;;;;;;15.65;8.80;;;4.90;99.90;;;;;;5104496;28;20232;-81
2022/01/16 01:00:32;;;;;;;17.77;9.77;;;4.90;99.90;;;;;;5101860;28;20291;-81
2022/01/16 01:03:01;;;;;;;11.63;8.27;;;5.00;99.90;;;;;;5100617;28;20201;-81
2022/01/16 01:05:30;;;;;;;16.27;8.85;;;4.90;99.90;;;;;;5103701;28;20681;-81
2022/01/16 01:07:58;;;;;;;17.13;10.70;;;4.90;99.90;;;;;;5096629;28;20198;-81
2022/01/16 01:10:31;;;;;;;15.68;8.52;;;5.00;99.90;;;;;;5118080;27;20647;-81
2022/01/16 01:13:10;;;;;;;19.38;9.13;;;5.00;99.90;;;;;;5101525;28;20201;-81
2022/01/16 01:15:45;;;;;;;16.58;9.57;;;5.20;99.90;;;;;;5104789;28;20244;-82
2022/01/16 01:18:13;;;;;;;15.40;8.23;;;5.00;99.90;;;;;;5104094;28;20194;-82
2022/01/16 01:20:43;;;;;;;15.90;9.18;;;4.90;99.90;;;;;;5108504;28;20208;-81
2022/01/16 01:23:11;;;;;;;18.33;9.40;;;4.90;99.90;;;;;;5110506;28;20678;-81
2022/01/16 01:25:41;;;;;;;17.25;8.40;;;5.00;99.90;;;;;;5107554;28;20214;-81
2022/01/16 01:28:11;;;;;;;20.90;9.30;;;5.00;99.90;;;;;;5106114;28;20214;-81
2022/01/16 01:30:43;;;;;;;15.05;7.32;;;5.00;99.90;;;;;;5107474;28;20188;-80
2022/01/16 01:33:14;;;;;;;17.02;8.10;;;5.00;99.90;;;;;;5106721;28;20295;-79
2022/01/16 01:35:43;;;;;;;16.05;7.95;;;4.90;99.90;;;;;;5105997;28;20229;-79
2022/01/16 01:38:17;;;;;;;18.88;9.57;;;4.90;99.90;;;;;;5106914;28;20198;-80
2022/01/16 01:40:48;;;;;;;13.23;7.50;;;4.90;99.90;;;;;;5107076;28;20210;-80
2022/01/16 01:51:38;;;;;;;15.80;8.80;;;4.90;99.90;;;;;;5113712;28;20212;-79
2022/01/16 01:54:07;;;;;;;17.73;8.43;;;4.90;99.90;;;;;;5110332;28;20227;-81
2022/01/16 01:56:37;;;;;;;15.73;7.35;;;4.90;99.90;;;;;;5105422;28;20577;-80
2022/01/16 01:59:05;;;;;;;16.85;8.75;;;5.00;99.90;;;;;;5113167;28;20207;-81
2022/01/16 02:01:35;;;;;;;14.10;7.95;;;5.00;99.90;;;;;;5104334;28;20208;-80
2022/01/16 02:04:04;;;;;;;14.95;8.55;;;5.00;99.90;;;;;;5112676;28;20209;-80
2022/01/16 02:06:33;;;;;;;21.38;8.75;;;4.90;99.90;;;;;;5111113;28;20238;-82
2022/01/16 02:09:04;;;;;;;17.65;9.13;;;4.90;99.90;;;;;;5116016;28;20620;-80
2022/01/16 02:11:33;;;;;;;10.73;7.75;;;5.10;99.90;;;;;;5109600;28;20203;-81
2022/01/16 02:14:09;;;;;;;19.73;9.38;;;4.80;99.90;;;;;;5109897;28;20213;-80
2022/01/16 02:28:05;;;;;;;14.02;7.55;;;4.80;99.90;;;;;;5103906;28;20662;-80
2022/01/16 02:31:01;;;;;;;14.95;8.25;;;4.80;99.90;;;;;;5101484;28;20197;-79
2022/01/16 02:36:27;;;;;;;15.88;9.27;;;4.90;99.90;;;;;;5099647;28;20302;-79
2022/01/16 02:39:05;;;;;;;15.73;10.10;;;4.80;99.90;;;;;;5106210;27;20671;-79
2022/01/16 02:41:34;;;;;;;15.10;7.07;;;4.80;99.90;;;;;;5097231;28;20199;-80
2022/01/16 02:44:12;;;;;;;15.05;9.00;;;5.20;99.90;;;;;;5105616;28;20593;-80
2022/01/16 02:46:40;;;;;;;12.57;8.38;;;4.80;99.90;;;;;;5097648;28;20201;-80
2022/01/16 02:49:23;;;;;;;12.48;7.95;;;4.80;99.90;;;;;;5105010;28;20189;-81
2022/01/16 02:51:53;;;;;;;12.02;8.13;;;4.90;99.90;;;;;;5098528;28;20206;-80
2022/01/16 02:54:23;;;;;;;17.13;9.05;;;4.90;99.90;;;;;;5109166;28;20221;-79
2022/01/16 02:56:51;;;;;;;11.23;6.93;;;4.90;99.90;;;;;;5104866;28;20214;-80
2022/01/16 02:59:21;;;;;;;11.55;6.68;;;4.80;99.90;;;;;;5105300;27;20215;-80
2022/01/16 03:01:50;;;;;;;11.48;8.38;;;4.70;99.90;;;;;;5104645;28;20339;-79
2022/01/16 03:04:19;;;;;;;12.48;8.13;;;4.50;99.90;;;;;;5108960;27;20225;-80
2022/01/16 03:06:47;;;;;;;11.10;7.00;;;4.60;99.90;;;;;;5109024;28;20198;-80
2022/01/16 03:09:17;;;;;;;12.27;7.03;;;4.60;99.90;;;;;;5103914;28;20193;-80
2022/01/16 03:11:48;;;;;;;14.82;8.73;;;4.30;99.90;;;;;;5111759;28;20201;-82
2022/01/16 03:14:19;;;;;;;13.57;7.30;;;4.30;99.90;;;;;;5110912;28;20628;-81
2022/01/16 03:16:51;;;;;;;10.70;6.72;;;4.40;99.90;;;;;;5112412;28;20298;-80
2022/01/16 03:22:07;;;;;;;15.25;7.28;;;4.40;99.90;;;;;;5107040;28;20676;-80
2022/01/16 03:24:38;;;;;;;14.65;7.75;;;4.20;99.90;;;;;;5107154;28;20230;-81
2022/01/16 03:27:11;;;;;;;10.40;7.55;;;4.10;99.90;;;;;;5101411;28;20195;-81
2022/01/16 03:29:41;;;;;;;9.63;6.65;;;4.10;99.90;;;;;;5109129;28;20225;-81
2022/01/16 03:32:12;;;;;;;10.98;6.60;;;4.10;99.90;;;;;;5106404;28;20275;-82
2022/01/16 03:34:40;;;;;;;9.90;7.15;;;4.20;99.90;;;;;;5091949;28;20710;-81
2022/01/16 03:37:08;;;;;;;11.05;8.00;;;4.10;99.90;;;;;;5101830;28;20223;-81
2022/01/16 03:39:37;;;;;;;17.63;8.45;;;4.00;99.90;;;;;;5105077;28;20219;-81
2022/01/16 03:42:08;;;;;;;12.07;7.65;;;4.20;99.90;;;;;;5106497;28;20201;-81
2022/01/16 03:44:36;;;;;;;10.85;6.20;;;4.10;99.90;;;;;;5104546;28;20228;-81
2022/01/16 03:47:05;;;;;;;12.57;6.78;;;4.20;99.90;;;;;;5104113;27;20200;-81
2022/01/16 03:49:34;;;;;;;11.45;7.50;;;4.30;99.90;;;;;;5108282;28;20197;-81
2022/01/16 03:52:02;;;;;;;14.80;7.30;;;4.50;99.90;;;;;;5103191;28;20839;-82
2022/01/16 03:54:32;;;;;;;12.88;7.68;;;4.30;99.90;;;;;;5110068;28;20228;-80
2022/01/16 03:57:00;;;;;;;10.73;7.18;;;4.40;99.90;;;;;;5110744;28;20223;-81
2022/01/16 03:59:30;;;;;;;12.98;8.02;;;4.20;99.90;;;;;;5105373;28;20230;-82
2022/01/16 04:01:58;;;;;;;9.77;7.45;;;4.30;99.90;;;;;;5108401;28;20201;-81
2022/01/16 04:04:27;;;;;;;11.43;6.35;;;4.30;99.90;;;;;;5109795;28;20738;-81
2022/01/16 04:06:55;;;;;;;11.60;6.60;;;4.30;99.90;;;;;;5106459;28;20193;-84
2022/01/16 04:09:23;;;;;;;11.52;6.50;;;4.30;99.90;;;;;;5108513;28;20675;-81
2022/01/16 04:11:54;;;;;;;10.57;7.13;;;4.30;99.90;;;;;;5106707;28;20204;-81
2022/01/16 04:15:31;;;;;;;9.52;7.50;;;4.20;99.90;;;;;;5103726;28;20223;-81
2022/01/16 04:17:16;;;;;;;11.20;7.13;;;4.30;99.90;;;;;;5101458;28;20218;-81
2022/01/16 04:19:44;;;;;;;15.35;8.65;;;4.10;99.90;;;;;;5101951;27;20211;-80
2022/01/16 04:22:14;;;;;;;9.95;7.13;;;4.10;99.90;;;;;;5106414;27;20232;-81
2022/01/16 04:24:43;;;;;;;13.38;8.32;;;4.10;99.90;;;;;;5106212;28;20224;-80
2022/01/16 04:27:12;;;;;;;11.18;7.38;;;4.10;99.90;;;;;;5102518;28;20284;-80
2022/01/16 04:29:42;;;;;;;12.73;7.63;;;4.00;99.90;;;;;;5108711;28;20223;-79
2022/01/16 04:32:11;;;;;;;14.55;7.85;;;4.10;99.90;;;;;;5102745;28;20200;-80
2022/01/16 04:34:41;;;;;;;15.20;9.00;;;4.10;99.90;;;;;;5108215;28;20272;-80
2022/01/16 04:37:09;;;;;;;11.95;8.10;;;4.10;99.90;;;;;;5107632;28;20211;-80
2022/01/16 04:39:38;;;;;;;13.05;7.35;;;4.10;99.90;;;;;;5107841;28;20200;-80
2022/01/16 04:44:53;;;;;;;12.07;6.72;;;4.10;99.90;;;;;;5101329;28;20326;-80
2022/01/16 04:47:21;;;;;;;11.50;6.93;;;4.10;99.90;;;;;;5103754;28;20591;-80
2022/01/16 04:49:51;;;;;;;12.55;7.40;;;4.20;99.90;;;;;;5107409;28;20216;-80
2022/01/16 04:52:19;;;;;;;10.48;7.25;;;4.10;99.90;;;;;;5100761;28;21626;-81
2022/01/16 04:54:47;;;;;;;12.52;7.70;;;4.30;99.90;;;;;;5106689;28;20222;-80
2022/01/16 04:57:16;;;;;;;13.38;7.75;;;4.00;99.90;;;;;;5101841;28;20215;-79
2022/01/16 04:59:45;;;;;;;12.98;6.82;;;4.00;99.90;;;;;;5100735;28;20827;-80
2022/01/16 05:02:13;;;;;;;11.57;7.63;;;4.00;99.90;;;;;;5102369;28;20212;-81
2022/01/16 05:04:41;;;;;;;15.05;9.05;;;4.00;99.90;;;;;;5107791;28;20223;-80
2022/01/16 05:07:11;;;;;;;14.18;7.70;;;4.00;99.90;;;;;;5099063;28;20278;-80
2022/01/16 05:09:39;;;;;;;11.25;6.90;;;4.10;99.90;;;;;;5100974;28;22278;-80
2022/01/16 05:12:12;;;;;;;11.90;8.15;;;4.00;99.90;;;;;;5104506;28;20199;-79
2022/01/16 05:17:26;;;;;;;11.75;6.82;;;4.00;99.90;;;;;;5098383;28;20201;-79
2022/01/16 05:19:54;;;;;;;14.30;9.27;;;4.00;99.90;;;;;;5105605;28;20207;-80
2022/01/16 05:22:24;;;;;;;12.25;7.35;;;4.00;99.90;;;;;;5110803;28;20198;-79
2022/01/16 05:24:52;;;;;;;13.55;8.57;;;4.10;99.90;;;;;;5103722;27;20220;-81
2022/01/16 05:27:20;;;;;;;12.25;8.25;;;4.10;99.90;;;;;;5104724;27;20665;-79
2022/01/16 05:29:49;;;;;;;12.52;8.80;;;4.20;99.90;;;;;;5099477;27;20217;-80
2022/01/16 05:32:17;;;;;;;14.32;8.63;;;4.10;99.90;;;;;;5106432;27;20201;-82
2022/01/16 05:34:45;;;;;;;15.50;9.13;;;4.00;99.90;;;;;;5104902;28;20226;-81
2022/01/16 05:37:14;;;;;;;11.57;8.43;;;4.00;99.90;;;;;;5104251;28;20654;-81
2022/01/16 05:39:45;;;;;;;13.68;9.65;;;4.00;99.90;;;;;;5104335;28;20210;-79
2022/01/16 05:42:13;;;;;;;11.50;7.18;;;4.00;99.90;;;;;;5103261;28;20204;-80
2022/01/16 05:44:41;;;;;;;16.55;8.95;;;4.00;99.90;;;;;;5107311;28;20225;-79
2022/01/16 05:47:12;;;;;;;16.15;8.05;;;4.00;99.90;;;;;;5108267;28;20205;-78
2022/01/16 05:49:42;;;;;;;9.85;7.03;;;4.00;99.90;;;;;;5101070;28;20202;-80
2022/01/16 05:52:12;;;;;;;13.13;8.50;;;4.10;99.90;;;;;;5101259;28;20204;-78
2022/01/16 05:54:40;;;;;;;12.45;8.32;;;4.00;99.90;;;;;;5104046;28;20218;-80
2022/01/16 05:57:10;;;;;;;11.30;8.77;;;4.00;99.90;;;;;;5106194;28;20208;-79
2022/01/16 05:59:42;;;;;;;9.40;6.28;;;3.90;99.90;;;;;;5095475;28;20210;-80
2022/01/16 06:02:11;;;;;;;17.00;7.97;;;3.90;99.90;;;;;;5108478;28;20297;-81
2022/01/16 06:04:39;;;;;;;13.52;8.40;;;3.90;99.90;;;;;;5103603;28;20702;-80
2022/01/16 06:07:07;;;;;;;13.05;8.27;;;3.90;99.90;;;;;;5106131;28;20284;-80
2022/01/16 06:09:36;;;;;;;9.60;7.78;;;3.90;99.90;;;;;;5108851;28;20325;-80
2022/01/16 06:12:05;;;;;;;13.38;8.40;;;3.80;99.90;;;;;;5109510;28;20219;-79
2022/01/16 06:14:35;;;;;;;20.90;9.80;;;3.80;99.90;;;;;;5103123;27;20236;-80
2022/01/16 06:17:03;;;;;;;14.20;9.43;;;4.00;99.90;;;;;;5118551;27;20211;-80
2022/01/16 06:19:32;;;;;;;9.45;7.90;;;3.80;99.90;;;;;;5103100;28;20228;-80
2022/01/16 06:22:00;;;;;;;13.40;8.95;;;3.80;99.90;;;;;;5111755;28;20196;-79
2022/01/16 06:24:29;;;;;;;12.85;8.85;;;3.80;99.90;;;;;;5102185;28;20716;-80
2022/01/16 06:26:57;;;;;;;11.70;7.70;;;3.80;99.90;;;;;;5107960;28;20194;-83
2022/01/16 06:29:26;;;;;;;11.50;7.75;;;3.70;99.90;;;;;;5099485;28;20201;-79
2022/01/16 06:31:55;;;;;;;14.23;8.60;;;3.60;99.90;;;;;;5094537;28;20200;-80
2022/01/16 06:34:24;;;;;;;14.13;9.10;;;3.60;99.90;;;;;;5101200;28;20236;-81
2022/01/16 06:36:53;;;;;;;17.00;9.00;;;3.60;99.90;;;;;;5107243;28;20200;-80
2022/01/16 06:39:21;;;;;;;9.77;7.43;;;3.60;99.90;;;;;;5104399;27;20818;-79
2022/01/16 06:41:49;;;;;;;13.88;8.85;;;3.60;99.90;;;;;;5106800;28;20620;-80
2022/01/16 06:44:38;;;;;;;13.25;7.85;;;3.60;99.90;;;;;;5096253;27;20673;-80
2022/01/16 06:47:08;;;;;;;12.38;9.27;;;3.80;99.90;;;;;;5102127;28;20257;-80
2022/01/16 06:49:36;;;;;;;14.23;8.65;;;3.50;99.90;;;;;;5101702;28;20215;-82
2022/01/16 06:52:05;;;;;;;9.57;7.43;;;3.50;99.90;;;;;;5106096;28;20197;-79
2022/01/16 06:54:34;;;;;;;12.63;8.23;;;3.40;99.90;;;;;;5104893;28;20277;-81
2022/01/16 06:57:02;;;;;;;14.32;8.85;;;3.40;99.90;;;;;;5108427;28;20204;-80
2022/01/16 06:59:32;;;;;;;7.68;6.95;;;3.40;99.90;;;;;;5107498;27;20311;-81
2022/01/16 07:02:00;;;;;;;12.27;6.70;;;3.40;99.90;;;;;;5104404;28;20209;-82
2022/01/16 07:04:30;;;;;;;13.18;7.65;;;3.40;99.90;;;;;;5104258;28;20583;-80
2022/01/16 07:06:58;;;;;;;14.57;8.95;;;3.50;99.90;;;;;;5100900;28;20204;-80
2022/01/16 07:09:27;;;;;;;13.13;9.02;;;3.50;99.90;;;;;;5104789;27;20228;-79
2022/01/16 07:11:55;;;;;;;12.45;9.30;;;3.60;99.90;;;;;;5101691;28;20439;-77
2022/01/16 07:14:23;;;;;;;12.57;8.27;;;3.60;99.90;;;;;;5101729;28;20212;-78
2022/01/16 07:16:52;;;;;;;9.48;7.40;;;3.70;99.90;;;;;;5108331;28;20198;-80
2022/01/16 07:19:20;;;;;;;11.93;7.20;;;3.60;99.90;;;;;;5102354;27;20239;-80
2022/01/16 07:21:50;;;;;;;10.68;8.10;;;3.60;99.90;;;;;;5108452;28;20282;-81
2022/01/16 07:24:18;;;;;;;8.27;7.43;;;3.60;99.90;;;;;;5101453;28;20230;-81
2022/01/16 07:26:47;;;;;;;9.10;6.80;;;3.60;99.90;;;;;;5106678;28;20215;-80
2022/01/16 07:29:15;;;;;;;11.45;9.00;;;3.70;99.90;;;;;;5106549;28;21013;-82
2022/01/16 07:31:43;;;;;;;11.48;7.78;;;3.70;99.90;;;;;;5105649;28;20196;-81
2022/01/16 07:34:12;;;;;;;7.15;6.45;;;3.80;99.90;;;;;;5106221;28;20227;-81
2022/01/16 07:36:40;;;;;;;15.00;7.90;;;3.80;99.90;;;;;;5107290;28;20189;-81
2022/01/16 07:39:10;;;;;;;8.45;6.93;;;4.20;99.90;;;;;;5104877;28;20842;-81
2022/01/16 07:41:39;;;;;;;9.65;6.70;;;3.90;99.90;;;;;;5095932;27;20707;-81
2022/01/16 07:44:07;;;;;;;11.43;6.68;;;3.90;99.40;;;;;;5106482;28;20239;-81
2022/01/16 07:46:36;;;;;;;11.73;7.70;;;3.80;98.30;;;;;;5106636;27;20192;-81
2022/01/16 07:49:04;;;;;;;9.27;6.13;;;3.80;99.90;;;;;;5102958;28;20446;-81
2022/01/16 07:51:32;;;;;;;8.77;5.90;;;3.90;99.90;;;;;;5104381;28;20196;-81
2022/01/16 07:54:01;;;;;;;8.07;5.43;;;3.90;99.90;;;;;;5103770;28;20208;-80
2022/01/16 07:56:31;;;;;;;9.20;6.82;;;4.00;99.90;;;;;;5103963;28;20530;-80
2022/01/16 07:58:59;;;;;;;11.48;6.72;;;3.90;99.90;;;;;;5096089;27;20659;-81
2022/01/16 08:01:27;;;;;;;11.35;7.47;;;3.90;99.90;;;;;;5100450;28;20188;-80
2022/01/16 08:03:56;;;;;;;11.32;9.05;;;3.90;99.90;;;;;;5102009;28;20205;-80
2022/01/16 08:06:25;;;;;;;10.23;7.60;;;3.90;99.90;;;;;;5105704;28;20274;-80
2022/01/16 08:08:54;;;;;;;10.43;8.43;;;3.90;99.90;;;;;;5108544;28;20193;-80
2022/01/16 08:11:22;;;;;;;12.10;8.00;;;3.90;99.90;;;;;;5095078;28;20262;-80
2022/01/16 08:13:52;;;;;;;9.32;7.47;;;4.00;99.90;;;;;;5095663;28;20202;-80
2022/01/16 08:16:20;;;;;;;13.63;9.43;;;4.00;99.90;;;;;;5100661;28;20466;-81
2022/01/16 08:18:49;;;;;;;16.10;10.73;;;4.00;99.90;;;;;;5099907;28;20197;-80
2022/01/16 08:21:17;;;;;;;17.67;11.77;;;4.00;99.90;;;;;;5103521;28;20214;-82
2022/01/16 08:23:45;;;;;;;14.80;9.77;;;4.10;99.90;;;;;;5102899;28;20750;-83
2022/01/16 08:26:14;;;;;;;17.00;10.80;;;4.20;99.90;;;;;;5103034;28;20454;-80
2022/01/16 08:28:42;;;;;;;16.90;10.25;;;4.10;99.90;;;;;;5102528;28;20192;-80
2022/01/16 08:31:12;;;;;;;19.92;10.77;;;4.10;99.90;;;;;;5098329;27;20198;-81
2022/01/16 08:33:40;;;;;;;13.35;9.10;;;4.50;99.90;;;;;;5105180;28;20580;-81
2022/01/16 08:36:09;;;;;;;10.18;7.72;;;4.40;99.90;;;;;;5105159;27;20226;-81
2022/01/16 08:38:37;;;;;;;13.82;8.35;;;4.40;99.90;;;;;;5104971;28;20310;-80
2022/01/16 08:41:05;;;;;;;15.48;8.88;;;4.50;99.90;;;;;;5096056;28;20208;-80
2022/01/16 08:43:36;;;;;;;11.13;7.05;;;4.60;99.90;;;;;;5101306;28;20205;-80
2022/01/16 08:46:05;;;;;;;12.85;7.75;;;4.60;99.90;;;;;;5097723;28;20218;-80
2022/01/16 08:48:35;;;;;;;9.75;6.70;;;4.70;99.90;;;;;;5115778;27;20204;-81
2022/01/16 08:51:03;;;;;;;12.32;8.48;;;4.70;99.90;;;;;;5106245;28;20319;-81
2022/01/16 08:53:32;;;;;;;10.30;6.88;;;4.90;99.90;;;;;;5112018;28;20193;-80
2022/01/16 08:56:01;;;;;;;11.23;8.35;;;4.80;99.90;;;;;;5112310;27;20218;-80
2022/01/16 08:58:29;;;;;;;13.13;8.27;;;4.90;99.90;;;;;;5110079;28;20201;-80
2022/01/16 09:00:58;;;;;;;10.02;7.47;;;4.90;99.90;;;;;;5100564;27;20216;-81
2022/01/16 09:03:26;;;;;;;13.80;8.30;;;5.00;99.90;;;;;;5103414;27;20205;-80
2022/01/16 09:05:56;;;;;;;12.48;7.30;;;5.10;99.90;;;;;;5112381;27;20217;-80
2022/01/16 09:08:25;;;;;;;14.70;7.97;;;5.10;99.90;;;;;;5107462;27;20193;-80
2022/01/16 09:10:54;;;;;;;12.43;8.07;;;5.20;99.90;;;;;;5115506;27;20200;-80
2022/01/16 09:13:22;;;;;;;11.38;6.78;;;5.20;99.90;;;;;;5108416;27;20584;-80
2022/01/16 09:15:52;;;;;;;11.75;8.65;;;5.30;99.90;;;;;;5101008;27;20306;-80
2022/01/16 09:18:20;;;;;;;16.10;8.13;;;5.40;99.90;;;;;;5106286;28;20207;-79
2022/01/16 09:20:49;;;;;;;12.00;8.23;;;5.50;99.90;;;;;;5109272;27;20222;-80
2022/01/16 09:23:19;;;;;;;10.98;8.35;;;5.50;99.90;;;;;;5110600;27;20204;-79
2022/01/16 09:25:47;;;;;;;13.00;8.38;;;5.50;99.90;;;;;;5108690;28;20320;-80
2022/01/16 09:28:16;;;;;;;15.07;9.10;;;5.50;99.90;;;;;;5100422;27;20674;-81
2022/01/16 09:30:44;;;;;;;13.10;8.05;;;5.50;99.90;;;;;;5108691;27;20610;-80
2022/01/16 09:33:13;;;;;;;16.50;9.50;;;5.70;99.90;;;;;;5109362;28;20191;-80
2022/01/16 09:35:41;;;;;;;18.63;9.40;;;5.80;99.90;;;;;;5107039;28;20654;-80
2022/01/16 09:38:09;;;;;;;11.07;8.10;;;5.90;99.90;;;;;;5111388;27;20216;-80
2022/01/16 09:40:39;;;;;;;17.05;8.80;;;6.00;99.90;;;;;;5111104;27;20219;-81
2022/01/16 09:43:08;;;;;;;12.18;7.88;;;6.00;99.90;;;;;;5127724;27;20722;-80
2022/01/16 09:45:36;;;;;;;17.60;11.25;;;6.10;99.90;;;;;;5109085;27;20450;-81
2022/01/16 09:48:05;;;;;;;17.42;10.40;;;6.00;99.90;;;;;;5101851;27;20204;-81
2022/01/16 09:50:34;;;;;;;13.03;8.80;;;6.00;99.90;;;;;;5105645;27;20192;-80
2022/01/16 09:53:03;;;;;;;14.90;8.40;;;6.00;99.90;;;;;;5103528;27;20451;-81
2022/01/16 09:55:31;;;;;;;15.10;8.50;;;6.10;99.90;;;;;;5101273;27;20475;-80
2022/01/16 09:58:01;;;;;;;13.30;8.18;;;6.10;99.90;;;;;;5109113;27;20963;-79
2022/01/16 10:00:30;;;;;;;16.60;9.37;;;6.20;99.90;;;;;;5104309;27;20233;-81
2022/01/16 10:02:58;;;;;;;18.93;8.80;;;6.20;99.90;;;;;;5110166;27;20457;-81
2022/01/16 10:05:30;;;;;;;12.57;9.20;;;6.30;99.90;;;;;;5110381;27;20476;-80
2022/01/16 10:08:01;;;;;;;13.43;8.53;;;6.50;99.90;;;;;;5111092;28;20892;-80
2022/01/16 10:10:33;;;;;;;12.60;7.78;;;6.60;99.90;;;;;;5106871;28;20473;-81
2022/01/16 10:13:20;;;;;;;13.13;8.70;;;6.80;99.90;;;;;;5110563;28;20214;-81
2022/01/16 10:15:53;;;;;;;13.40;9.00;;;7.00;99.90;;;;;;5110516;27;21066;-82
2022/01/16 10:18:33;;;;;;;12.77;8.20;;;7.10;99.90;;;;;;5117528;27;20456;-81
2022/01/16 10:21:02;;;;;;;17.35;10.95;;;7.20;99.90;;;;;;5106763;28;20461;-81
2022/01/16 10:23:30;;;;;;;15.37;8.63;;;7.30;99.90;;;;;;5109149;27;20236;-81
2022/01/16 10:25:59;;;;;;;16.90;11.63;;;7.60;99.90;;;;;;5100466;28;20480;-81
2022/01/16 10:28:28;;;;;;;16.33;9.23;;;8.00;99.90;;;;;;5102940;28;20502;-79
2022/01/16 10:31:00;;;;;;;13.87;8.13;;;8.30;99.90;;;;;;5111041;27;20449;-79
2022/01/16 10:33:34;;;;;;;14.23;9.17;;;8.60;99.90;;;;;;5115164;27;20450;-80
2022/01/16 10:36:03;;;;;;;17.23;10.53;;;9.00;99.90;;;;;;5109664;27;20483;-81
2022/01/16 10:38:31;;;;;;;13.87;9.97;;;9.20;99.90;;;;;;5111064;27;20449;-81
2022/01/16 10:41:01;;;;;;;16.33;9.67;;;9.40;99.90;;;;;;5109534;27;20468;-81
2022/01/16 10:43:41;;;;;;;14.10;9.10;;;9.60;99.90;;;;;;5108594;27;20479;-79
2022/01/16 10:46:11;;;;;;;16.10;11.37;;;9.80;99.90;;;;;;5101748;27;20491;-78
2022/01/16 10:49:17;;;;;;;17.20;11.80;;;9.90;99.90;;;;;;5100785;28;20443;-80
2022/01/16 10:52:09;;;;;;;16.20;10.07;;;10.00;99.90;;;;;;5104791;27;20517;-79
2022/01/16 10:54:40;;;;;;;18.13;10.30;;;10.20;99.90;;;;;;5102151;27;20480;-79
2022/01/16 10:57:26;;;;;;;14.80;10.10;;;10.30;99.90;;;;;;5110148;27;20455;-78
2022/01/16 11:00:09;;;;;;;16.07;10.40;;;10.40;99.90;;;;;;5111997;27;20569;-79
2022/01/16 11:02:38;;;;;;;17.07;10.50;;;10.40;99.90;;;;;;5097998;27;20537;-79
2022/01/16 11:05:09;;;;;;;16.00;9.83;;;10.50;99.90;;;;;;5095288;27;20478;-79
2022/01/16 11:07:38;;;;;;;12.83;9.57;;;10.50;99.90;;;;;;5096279;27;20479;-80
2022/01/16 11:10:26;;;;;;;14.40;9.60;;;10.60;99.90;;;;;;5095774;27;20508;-80
2022/01/16 11:12:56;;;;;;;16.57;10.13;;;10.60;99.90;;;;;;5109437;27;20477;-79
2022/01/16 11:15:27;;;;;;;13.80;10.20;;;10.60;99.90;;;;;;5098453;27;20469;-80
2022/01/16 11:17:55;;;;;;;14.10;9.83;;;10.80;99.90;;;;;;5107379;27;20673;-81
2022/01/16 11:20:29;;;;;;;16.93;9.50;;;10.90;99.90;;;;;;5102767;28;20465;-80
2022/01/16 11:23:01;;;;;;;13.43;9.03;;;11.00;99.90;;;;;;5107594;27;20569;-78
2022/01/16 11:25:33;;;;;;;13.93;9.80;;;11.00;99.90;;;;;;5104960;27;20504;-79
2022/01/16 11:28:05;;;;;;;12.63;9.13;;;10.90;99.90;;;;;;5096685;28;20472;-79
2022/01/16 11:30:37;;;;;;;13.87;8.77;;;10.90;99.90;;;;;;5091626;27;20458;-79
2022/01/16 11:33:06;;;;;;;13.90;10.47;;;10.50;99.90;;;;;;5103113;27;20457;-80
2022/01/16 11:35:41;;;;;;;13.50;8.20;;;10.50;99.90;;;;;;5102031;28;20940;-80
2022/01/16 11:38:10;;;;;;;11.83;8.67;;;10.50;99.90;;;;;;5104949;27;20447;-80
2022/01/16 11:40:45;;;;;;;13.33;9.60;;;10.50;99.90;;;;;;5101975;27;20778;-80
2022/01/16 11:43:25;;;;;;;15.30;9.53;;;10.50;99.90;;;;;;5099301;27;20479;-79
2022/01/16 11:46:13;;;;;;;17.00;9.83;;;10.60;99.90;;;;;;5113751;27;20481;-80
2022/01/16 11:48:46;;;;;;;13.60;8.73;;;10.50;99.90;;;;;;5093072;27;20528;-79
2022/01/16 11:52:07;;;;;;;18.50;10.60;;;10.50;99.90;;;;;;5096232;27;20449;-79
2022/01/16 11:54:38;;;;;;;15.10;8.47;;;10.40;99.90;;;;;;5108223;27;20556;-81
2022/01/16 11:57:24;;;;;;;15.23;9.67;;;10.30;99.90;;;;;;5102631;27;20453;-81
2022/01/16 11:59:56;;;;;;;15.50;9.33;;;10.20;99.90;;;;;;5092023;28;20457;-78
2022/01/16 12:02:29;;;;;;;12.73;9.73;;;10.10;99.90;;;;;;5093334;28;21064;-80
2022/01/16 12:05:04;;;;;;;15.33;9.80;;;10.20;99.90;;;;;;5098042;28;20482;-79
2022/01/16 12:07:53;;;;;;;17.37;11.60;;;10.20;99.90;;;;;;5091154;27;20454;-80
2022/01/16 12:10:58;;;;;;;14.40;9.93;;;10.00;99.90;;;;;;5095862;27;20490;-80
2022/01/16 12:13:57;;;;;;;14.90;8.60;;;10.00;99.90;;;;;;5100323;27;20448;-80
2022/01/16 12:16:47;;;;;;;13.10;9.20;;;9.90;99.90;;;;;;5097221;28;20494;-80
2022/01/16 12:19:45;;;;;;;12.43;8.70;;;10.00;99.90;;;;;;5094909;27;20546;-80
2022/01/16 12:22:34;;;;;;;11.63;6.30;;;9.40;99.90;;;;;;5101451;28;20483;-79
2022/01/16 12:25:08;;;;;;;16.50;7.10;;;9.30;99.90;;;;;;5099197;27;20569;-80
2022/01/16 12:27:57;;;;;;;12.85;8.77;;;9.10;99.90;;;;;;5097791;28;20513;-81
2022/01/16 12:30:41;;;;;;;15.40;8.10;;;8.80;99.90;;;;;;5100808;27;20194;-81
2022/01/16 12:33:25;;;;;;;9.73;7.20;;;8.80;99.90;;;;;;5119559;27;20441;-81
2022/01/16 12:36:10;;;;;;;12.17;7.77;;;8.80;99.90;;;;;;5103971;28;20809;-80
2022/01/16 12:39:03;;;;;;;13.77;8.53;;;8.80;99.90;;;;;;5104556;28;20540;-80
2022/01/16 12:41:37;;;;;;;18.73;8.47;;;8.70;99.90;;;;;;5099391;27;21093;-81
2022/01/16 12:44:08;;;;;;;12.27;8.50;;;8.60;99.90;;;;;;5109995;27;20461;-81
2022/01/16 12:46:40;;;;;;;12.50;7.30;;;8.50;99.90;;;;;;5098192;28;20565;-81
2022/01/16 12:49:11;;;;;;;16.20;9.47;;;8.20;99.90;;;;;;5099703;28;20531;-81
2022/01/16 12:51:44;;;;;;;14.77;7.33;;;8.10;99.90;;;;;;5099105;28;21054;-80
2022/01/16 12:54:14;;;;;;;13.70;7.50;;;8.10;99.90;;;;;;5100343;28;20488;-80
2022/01/16 12:56:45;;;;;;;10.23;6.93;;;8.20;99.90;;;;;;5102750;28;20486;-80
2022/01/16 12:59:37;;;;;;;11.80;5.63;;;8.10;99.90;;;;;;5103034;28;20460;-77
2022/01/16 13:02:07;;;;;;;8.45;5.10;;;8.10;99.90;;;;;;5096536;28;20494;-79
2022/01/16 13:04:38;;;;;;;7.53;5.30;;;8.20;99.90;;;;;;5100818;28;20243;-83
2022/01/16 13:07:27;;;;;;;4.07;3.03;;;8.10;99.90;;;;;;5095420;28;20445;-79
2022/01/16 13:09:56;;;;;;;5.73;3.43;;;8.10;99.90;;;;;;5100273;28;20463;-83
2022/01/16 13:12:25;;;;;;;4.87;3.50;;;8.10;99.90;;;;;;5098322;28;20959;-82
2022/01/16 13:14:59;;;;;;;5.00;2.67;;;7.90;99.90;;;;;;5099409;28;20470;-82
2022/01/16 13:17:27;;;;;;;6.47;3.23;;;7.80;99.90;;;;;;5105113;28;20442;-82
2022/01/16 13:19:58;;;;;;;8.07;4.03;;;7.90;99.90;;;;;;5103434;28;20455;-82
2022/01/16 13:22:30;;;;;;;6.93;3.40;;;8.00;99.90;;;;;;5101664;28;20481;-80
2022/01/16 13:25:02;;;;;;;11.80;5.30;;;7.90;99.90;;;;;;5108298;28;20575;-80
2022/01/16 13:27:34;;;;;;;7.03;4.57;;;7.80;99.90;;;;;;5101180;28;20453;-79
2022/01/16 13:30:06;;;;;;;6.20;4.40;;;7.90;99.90;;;;;;5101262;28;20457;-81
2022/01/16 13:32:36;;;;;;;8.47;5.00;;;8.00;99.90;;;;;;5099887;28;20523;-80
2022/01/16 13:35:18;;;;;;;8.13;4.80;;;8.00;99.90;;;;;;5108535;28;20476;-80
2022/01/16 13:37:49;;;;;;;6.93;5.47;;;8.00;99.90;;;;;;5091507;28;20463;-81
2022/01/16 13:40:20;;;;;;;8.53;5.77;;;8.00;99.90;;;;;;5107301;27;20493;-81